Jizan Regional Airport
OEGN : now visible

Airfield :











YOU CAN JOIN US ON...

 
LOGIN :

Register | Disclaimer

   EN    FR    IT 

 









Legend :    VFR   Marginal VFR   IFR   Intensive IFR   Very Intensive IFR
Visi :
Ceiling :
>= 8 km
>= 3000ft
5 to 8 km
1000 to 3000 ft
1500m to 5 km
500 to 1000 ft
800 to 1500m
200 to 500 ft
< 800m
< 200 ft
Symbols :   Thunderstorms  Fog  Heavy snow  Heavy precipitations  Wind > 20 kt






- Airport Elevation : 20 ft
- IATA code : GIZ


OEGN - Jizan Regional

CURRENT METAR :
  • 011900Z 02006KT 350V050 CAVOK 32/27 Q1008 NOSIG

EXPIRED METARs :
  • 011800Z 30008KT CAVOK 33/27 Q1007 NOSIG
  • 011700Z 30010KT CAVOK 33/27 Q1007 NOSIG

TAF TAF OEGN
Valid from the 01 at 12:00 until the 02 at 18:00 UTC


011100Z 0112/0218 26013KT 7000 SCT030
TEMPO 0112/0118 4000 BLDU TSRA FEW025CB BKN030
BECMG 0121/0123 VRB03KT
OEJD FIR / Asia



MET'MAP, your aeronautical weather chart ! - Copyright ORBIFLY December 2007 - Disclaimer

ORBIFLY MET'MAP TEAM :

Programming & Development : Alexandra Zaïnal
Concept & original design : Baudouin d'Aumeries
Assistance for programming : Marc-Olivier Méhu
Technical & hardware support : Manuel Goepfert

Contact : metmap@orbifly.com




SOURCES & CREDITS :

   NOAA       Earth
Advisory